createdAt,value
2018-09-24T00:00:27.516Z,15.40
2018-09-24T00:01:27.753Z,14.80
2018-09-24T00:02:27.552Z,14.90
2018-09-24T00:03:27.606Z,15.00
2018-09-24T00:04:27.704Z,15.90
2018-09-24T00:05:27.591Z,14.50
2018-09-24T00:06:27.836Z,16.50
2018-09-24T00:07:27.624Z,16.80
2018-09-24T00:08:27.769Z,14.80
2018-09-24T00:09:27.776Z,15.50
2018-09-24T00:10:27.793Z,17.70
2018-09-24T00:11:27.913Z,20.90
2018-09-24T00:12:27.706Z,19.00
2018-09-24T00:13:27.751Z,19.00
2018-09-24T00:14:27.741Z,18.80
2018-09-24T00:15:27.760Z,19.10
2018-09-24T00:16:27.857Z,19.20
2018-09-24T00:17:27.789Z,19.60
2018-09-24T00:18:27.797Z,19.40
2018-09-24T00:19:27.820Z,24.40
2018-09-24T00:20:27.823Z,25.80
2018-09-24T00:21:27.893Z,24.50
2018-09-24T00:22:27.868Z,26.50
2018-09-24T00:23:27.994Z,30.80
2018-09-24T00:24:27.912Z,25.00
2018-09-24T00:25:27.899Z,25.50
2018-09-24T00:26:28.190Z,28.00
2018-09-24T00:27:27.920Z,29.30
2018-09-24T00:28:27.946Z,28.80
2018-09-24T00:29:27.975Z,28.50
2018-09-24T00:30:28.099Z,27.20
2018-09-24T00:31:28.088Z,31.00
2018-09-24T00:32:28.130Z,28.50
2018-09-24T00:33:28.142Z,29.70
2018-09-24T00:34:28.032Z,27.50
2018-09-24T00:35:28.050Z,29.60
2018-09-24T00:36:28.219Z,30.70
2018-09-24T00:37:28.087Z,30.30
2018-09-24T00:38:28.220Z,29.30
2018-09-24T00:39:28.107Z,28.80
2018-09-24T00:40:28.131Z,29.80
2018-09-24T00:41:28.314Z,32.20
2018-09-24T00:42:28.160Z,30.70
2018-09-24T00:43:28.232Z,36.10
2018-09-24T00:44:28.182Z,33.10
2018-09-24T00:45:28.198Z,32.50
2018-09-24T00:46:28.271Z,33.00
2018-09-24T00:47:28.234Z,31.40
2018-09-24T00:48:28.372Z,31.50
2018-09-24T00:49:28.257Z,31.00
2018-09-24T00:50:28.403Z,34.10
2018-09-24T00:51:28.524Z,34.80
2018-09-24T00:52:28.317Z,35.70
2018-09-24T00:53:28.440Z,34.70
2018-09-24T00:54:28.330Z,33.80
2018-09-24T00:55:28.398Z,33.00
2018-09-24T00:56:28.458Z,32.40
2018-09-24T00:57:28.503Z,35.90
2018-09-24T00:58:28.399Z,34.20
2018-09-24T00:59:28.533Z,37.80
2018-09-24T01:00:28.433Z,35.50
2018-09-24T01:01:28.659Z,35.90
2018-09-24T01:02:28.457Z,33.90
2018-09-24T01:03:28.513Z,34.10
2018-09-24T01:04:28.539Z,34.40
2018-09-24T01:05:28.499Z,35.90
2018-09-24T01:06:28.613Z,36.80
2018-09-24T01:07:28.529Z,34.40
2018-09-24T01:08:28.547Z,34.80
2018-09-24T01:09:28.683Z,39.30
2018-09-24T01:10:28.692Z,40.00
2018-09-24T01:11:28.675Z,34.80
2018-09-24T01:12:28.600Z,34.40
2018-09-24T01:13:28.608Z,33.80
2018-09-24T01:14:28.628Z,36.30
2018-09-24T01:15:28.646Z,35.40
2018-09-24T01:16:28.888Z,37.70
2018-09-24T01:17:28.672Z,35.10
2018-09-24T01:18:28.688Z,37.30
2018-09-24T01:19:28.752Z,36.50
2018-09-24T01:20:28.728Z,38.10
2018-09-24T01:21:28.824Z,37.30
2018-09-24T01:22:28.738Z,33.20
2018-09-24T01:23:28.883Z,34.80
2018-09-24T01:24:28.905Z,36.70
2018-09-24T01:25:28.889Z,36.10
2018-09-24T01:26:28.797Z,36.50
2018-09-24T01:27:28.947Z,35.50
2018-09-24T01:28:28.834Z,39.90
2018-09-24T01:29:28.848Z,37.00
2018-09-24T01:30:29.086Z,35.40
2018-09-24T01:31:29.010Z,34.70
2018-09-24T01:32:28.890Z,35.20
2018-09-24T01:33:28.910Z,35.80
2018-09-24T01:34:28.918Z,35.00
2018-09-24T01:35:29.166Z,37.80
2018-09-24T01:36:28.951Z,35.70
2018-09-24T01:37:29.092Z,36.60
2018-09-24T01:38:29.102Z,35.50
2018-09-24T01:39:29.124Z,36.10
2018-09-24T01:40:29.167Z,39.10
2018-09-24T01:41:29.024Z,36.00
2018-09-24T01:42:29.088Z,39.40
2018-09-24T01:43:29.183Z,37.90
2018-09-24T01:44:29.063Z,39.40
2018-09-24T01:45:29.192Z,37.50
2018-09-24T01:46:29.134Z,38.40
2018-09-24T01:47:29.114Z,37.00
2018-09-24T01:48:29.249Z,43.50
2018-09-24T01:49:29.261Z,36.80
2018-09-24T01:50:29.321Z,40.10
2018-09-24T01:51:29.295Z,39.90
2018-09-24T01:52:29.312Z,36.90
2018-09-24T01:53:29.203Z,36.20
2018-09-24T01:54:29.337Z,40.40
2018-09-24T01:55:29.450Z,40.00
2018-09-24T01:56:29.236Z,40.90
2018-09-24T01:57:29.269Z,39.80
2018-09-24T01:58:29.395Z,40.20
2018-09-24T01:59:29.278Z,39.60
2018-09-24T02:00:29.449Z,40.80
2018-09-24T02:01:29.435Z,38.50
2018-09-24T02:02:29.342Z,41.40
2018-09-24T02:03:29.342Z,41.60
2018-09-24T02:04:29.354Z,45.70
2018-09-24T02:05:29.473Z,41.70
2018-09-24T02:06:29.377Z,42.10
2018-09-24T02:07:29.392Z,43.40
2018-09-24T02:08:29.425Z,43.10
2018-09-24T02:09:29.547Z,48.60
2018-09-24T02:10:29.539Z,46.10
2018-09-24T02:11:29.477Z,44.90
2018-09-24T02:12:29.495Z,44.70
2018-09-24T02:13:29.483Z,47.30
2018-09-24T02:14:29.617Z,47.50
2018-09-24T02:15:29.562Z,45.30
2018-09-24T02:16:29.540Z,46.00
2018-09-24T02:17:29.683Z,45.60
2018-09-24T02:18:29.553Z,46.70
2018-09-24T02:19:29.607Z,46.20
2018-09-24T02:20:29.706Z,44.30
2018-09-24T02:21:29.602Z,46.60
2018-09-24T02:22:29.717Z,47.40
2018-09-24T02:23:29.627Z,47.60
2018-09-24T02:24:29.636Z,46.40
2018-09-24T02:25:29.778Z,48.20
2018-09-24T02:26:29.793Z,50.10
2018-09-24T02:27:29.779Z,45.70
2018-09-24T02:28:29.701Z,46.50
2018-09-24T02:29:29.723Z,46.00
2018-09-24T02:30:29.720Z,44.40
2018-09-24T02:31:29.744Z,45.60
2018-09-24T02:32:29.803Z,46.20
2018-09-24T02:33:29.754Z,48.60
2018-09-24T02:34:29.903Z,51.70
2018-09-24T02:35:29.924Z,53.20
2018-09-24T02:36:29.821Z,56.10
2018-09-24T02:37:29.999Z,53.80
2018-09-24T02:38:29.853Z,58.60
2018-09-24T02:39:29.976Z,53.40
2018-09-24T02:40:29.987Z,53.00
2018-09-24T02:41:29.924Z,56.10
2018-09-24T02:42:29.957Z,50.80
2018-09-24T02:43:29.952Z,52.90
2018-09-24T02:44:30.074Z,53.10
2018-09-24T02:45:30.063Z,54.00
2018-09-24T02:46:29.950Z,53.60
2018-09-24T02:47:29.967Z,49.80
2018-09-24T02:48:30.100Z,51.20
2018-09-24T02:49:30.214Z,52.60
2018-09-24T02:50:30.132Z,58.30
2018-09-24T02:51:30.038Z,54.70
2018-09-24T02:52:30.163Z,48.30
2018-09-24T02:53:30.046Z,48.40
2018-09-24T02:54:30.121Z,50.60
2018-09-24T02:55:30.197Z,50.60
2018-09-24T02:56:30.090Z,48.90
2018-09-24T02:57:30.256Z,51.70
2018-09-24T02:58:30.113Z,56.80
2018-09-24T02:59:30.167Z,53.10
2018-09-24T03:00:30.153Z,50.70
2018-09-24T03:01:30.224Z,58.50
2018-09-24T03:02:30.228Z,60.60
2018-09-24T03:03:30.311Z,59.80
2018-09-24T03:04:30.324Z,56.10
2018-09-24T03:05:30.265Z,49.80
2018-09-24T03:06:30.235Z,56.70
2018-09-24T03:07:30.248Z,52.90
2018-09-24T03:08:30.382Z,53.00
2018-09-24T03:09:30.260Z,51.70
2018-09-24T03:10:30.559Z,56.50
2018-09-24T03:11:30.422Z,50.90
2018-09-24T03:12:30.443Z,58.10
2018-09-24T03:13:30.454Z,53.40
2018-09-24T03:14:30.354Z,62.30
2018-09-24T03:15:30.529Z,57.40
2018-09-24T03:16:30.375Z,58.10
2018-09-24T03:17:30.387Z,57.10
2018-09-24T03:18:30.398Z,52.40
2018-09-24T03:19:30.416Z,54.20
2018-09-24T03:20:30.473Z,56.00
2018-09-24T03:21:30.539Z,52.10
2018-09-24T03:22:30.498Z,61.00
2018-09-24T03:23:30.588Z,56.20
2018-09-24T03:24:30.475Z,61.60
2018-09-24T03:25:30.492Z,54.10
2018-09-24T03:26:30.563Z,54.40
2018-09-24T03:27:30.647Z,51.70
2018-09-24T03:28:30.531Z,53.00
2018-09-24T03:29:30.673Z,59.90
2018-09-24T03:30:30.786Z,56.70
2018-09-24T03:31:30.584Z,61.40
2018-09-24T03:32:30.601Z,61.40
2018-09-24T03:33:30.725Z,58.60
2018-09-24T03:34:30.615Z,57.50
2018-09-24T03:35:30.721Z,61.00
2018-09-24T03:36:30.644Z,61.40
2018-09-24T03:37:30.758Z,62.30
2018-09-24T03:38:30.798Z,61.40
2018-09-24T03:39:30.810Z,62.30
2018-09-24T03:40:30.704Z,60.30
2018-09-24T03:41:30.725Z,71.70
2018-09-24T03:42:31.009Z,65.70
2018-09-24T03:43:30.738Z,63.10
2018-09-24T03:44:30.762Z,70.60
2018-09-24T03:45:30.788Z,66.10
2018-09-24T03:46:30.909Z,72.50
2018-09-24T03:47:31.024Z,67.20
2018-09-24T03:48:30.800Z,65.20
2018-09-24T03:49:30.820Z,70.20
2018-09-24T03:50:30.835Z,67.50
2018-09-24T03:51:30.849Z,65.10
2018-09-24T03:52:31.016Z,71.40
2018-09-24T03:53:30.870Z,66.00
2018-09-24T03:54:31.014Z,70.20
2018-09-24T03:55:31.031Z,63.40
2018-09-24T03:56:30.925Z,61.90
2018-09-24T03:57:31.034Z,69.80
2018-09-24T03:58:31.076Z,72.20
2018-09-24T03:59:30.975Z,68.00
2018-09-24T04:00:31.095Z,70.40
2018-09-24T04:01:31.000Z,72.80
2018-09-24T04:02:31.110Z,74.00
2018-09-24T04:03:31.021Z,68.30
2018-09-24T04:04:31.159Z,71.80
2018-09-24T04:05:31.165Z,72.20
2018-09-24T04:06:31.057Z,75.80
2018-09-24T04:07:31.245Z,75.00
2018-09-24T04:08:31.094Z,76.60
2018-09-24T04:09:31.123Z,69.60
2018-09-24T04:10:31.236Z,75.00
2018-09-24T04:11:31.252Z,72.10
2018-09-24T04:12:31.225Z,72.50
2018-09-24T04:13:31.146Z,74.90
2018-09-24T04:14:31.287Z,68.20
2018-09-24T04:15:31.176Z,74.10
2018-09-24T04:16:31.227Z,62.60
2018-09-24T04:17:31.384Z,70.30
2018-09-24T04:18:31.347Z,64.00
2018-09-24T04:19:31.373Z,61.50
2018-09-24T04:20:31.374Z,65.60
2018-09-24T04:21:31.250Z,67.80
2018-09-24T04:22:31.430Z,76.10
2018-09-24T04:23:31.289Z,69.60
2018-09-24T04:24:31.425Z,65.70
2018-09-24T04:25:31.312Z,69.30
2018-09-24T04:26:31.455Z,76.50
2018-09-24T04:27:31.620Z,68.90
2018-09-24T04:28:31.476Z,69.10
2018-09-24T04:29:31.401Z,71.50
2018-09-24T04:30:31.379Z,68.90
2018-09-24T04:31:31.390Z,75.60
2018-09-24T04:32:31.584Z,72.20
2018-09-24T04:33:31.542Z,64.00
2018-09-24T04:34:31.440Z,71.50
2018-09-24T04:35:31.442Z,79.20
2018-09-24T04:36:31.585Z,72.80
2018-09-24T04:37:31.624Z,79.80
2018-09-24T04:38:31.487Z,79.90
2018-09-24T04:39:31.683Z,71.80
2018-09-24T04:40:31.555Z,75.90
2018-09-24T04:41:31.569Z,79.10
2018-09-24T04:42:31.687Z,85.50
2018-09-24T04:43:31.546Z,86.80
2018-09-24T04:44:31.569Z,74.80
2018-09-24T04:45:31.705Z,83.00
2018-09-24T04:46:31.609Z,79.80
2018-09-24T04:47:31.887Z,75.40
2018-09-24T04:48:31.618Z,83.80
2018-09-24T04:49:31.758Z,87.20
2018-09-24T04:50:31.774Z,78.90
2018-09-24T04:51:31.663Z,79.10
2018-09-24T04:52:31.782Z,84.90
2018-09-24T04:53:31.699Z,82.40
2018-09-24T04:54:31.723Z,84.60
2018-09-24T04:55:31.716Z,82.10
2018-09-24T04:56:31.730Z,85.60
2018-09-24T04:57:32.014Z,82.70
2018-09-24T04:58:31.909Z,84.80
2018-09-24T04:59:31.774Z,90.80
2018-09-24T05:00:31.913Z,95.80
2018-09-24T05:01:31.922Z,98.60
2018-09-24T05:02:31.988Z,100.30
2018-09-24T05:03:31.952Z,104.10
2018-09-24T05:04:31.959Z,109.70
2018-09-24T05:05:31.977Z,109.80
2018-09-24T05:06:31.864Z,99.20
2018-09-24T05:07:32.104Z,101.30
2018-09-24T05:08:31.924Z,98.50
2018-09-24T05:09:32.028Z,97.20
2018-09-24T05:10:31.959Z,97.70
2018-09-24T05:11:31.932Z,100.10
2018-09-24T05:12:32.103Z,95.30
2018-09-24T05:13:31.953Z,99.40
2018-09-24T05:14:31.973Z,89.00
2018-09-24T05:15:32.019Z,84.80
2018-09-24T05:16:32.168Z,89.50
2018-09-24T05:17:32.183Z,91.60
2018-09-24T05:18:32.031Z,93.00
2018-09-24T05:19:32.025Z,90.40
2018-09-24T05:20:32.046Z,88.50
2018-09-24T05:21:32.067Z,86.70
2018-09-24T05:22:32.124Z,83.30
2018-09-24T05:23:32.083Z,87.80
2018-09-24T05:24:32.257Z,88.60
2018-09-24T05:25:32.118Z,81.30
2018-09-24T05:26:32.124Z,79.40
2018-09-24T05:27:32.140Z,84.10
2018-09-24T05:28:32.276Z,79.90
2018-09-24T05:29:35.582Z,90.00
2018-09-24T05:30:32.185Z,92.30
2018-09-24T05:31:32.194Z,78.90
2018-09-24T05:32:32.379Z,86.90
2018-09-24T05:33:32.218Z,85.40
2018-09-24T05:34:32.444Z,85.20
2018-09-24T05:35:32.520Z,85.60
2018-09-24T05:36:32.262Z,82.70
2018-09-24T05:37:32.267Z,82.40
2018-09-24T05:38:32.413Z,89.60
2018-09-24T05:39:32.298Z,80.70
2018-09-24T05:40:32.456Z,82.50
2018-09-24T05:41:32.313Z,78.70
2018-09-24T05:42:32.349Z,84.60
2018-09-24T05:43:32.361Z,84.00
2018-09-24T05:44:32.368Z,77.20
2018-09-24T05:45:32.555Z,83.20
2018-09-24T05:46:32.397Z,79.30
2018-09-24T05:47:32.395Z,76.00
2018-09-24T05:48:32.544Z,78.10
2018-09-24T05:49:32.585Z,78.90
2018-09-24T05:50:32.442Z,83.00
2018-09-24T05:51:32.462Z,76.90
2018-09-24T05:52:32.472Z,79.80
2018-09-24T05:53:32.471Z,80.30
2018-09-24T05:54:32.493Z,81.50
2018-09-24T05:55:32.652Z,92.10
2018-09-24T05:56:32.530Z,85.40
2018-09-24T05:57:32.532Z,79.50
2018-09-24T05:58:32.579Z,78.30
2018-09-24T05:59:32.681Z,79.10
2018-09-24T06:00:32.723Z,84.50
2018-09-24T06:01:32.584Z,88.30
2018-09-24T06:02:32.722Z,82.80
2018-09-24T06:03:32.733Z,70.20
2018-09-24T06:04:32.799Z,84.40
2018-09-24T06:05:32.778Z,83.10
2018-09-24T06:06:32.656Z,77.40
2018-09-24T06:07:32.671Z,77.40
2018-09-24T06:08:32.805Z,78.80
2018-09-24T06:09:32.684Z,81.90
2018-09-24T06:10:32.853Z,78.60
2018-09-24T06:11:32.841Z,86.50
2018-09-24T06:12:32.739Z,77.80
2018-09-24T06:13:32.824Z,74.30
2018-09-24T06:14:32.881Z,84.60
2018-09-24T06:15:32.913Z,78.10
2018-09-24T06:16:32.902Z,82.10
2018-09-24T06:17:32.790Z,83.10
2018-09-24T06:18:32.928Z,83.80
2018-09-24T06:19:32.941Z,80.60
2018-09-24T06:20:33.016Z,77.40
2018-09-24T06:21:32.872Z,79.70
2018-09-24T06:22:32.988Z,84.70
2018-09-24T06:23:32.874Z,82.80
2018-09-24T06:24:33.008Z,74.80
2018-09-24T06:25:33.052Z,79.80
2018-09-24T06:26:32.926Z,79.50
2018-09-24T06:27:33.045Z,81.60
2018-09-24T06:28:32.974Z,82.50
2018-09-24T06:29:32.944Z,75.10
2018-09-24T06:30:33.237Z,79.10
2018-09-24T06:31:33.095Z,80.40
2018-09-24T06:32:33.111Z,79.50
2018-09-24T06:33:32.997Z,80.60
2018-09-24T06:34:33.133Z,84.50
2018-09-24T06:35:33.499Z,73.10
2018-09-24T06:36:33.078Z,83.90
2018-09-24T06:37:33.105Z,90.50
2018-09-24T06:38:33.083Z,80.50
2018-09-24T06:39:33.078Z,82.60
2018-09-24T06:40:33.176Z,78.90
2018-09-24T06:41:33.101Z,82.20
2018-09-24T06:42:33.117Z,78.10
2018-09-24T06:43:33.409Z,84.80
2018-09-24T06:44:33.265Z,79.70
2018-09-24T06:45:33.273Z,85.30
2018-09-24T06:46:33.286Z,86.50
2018-09-24T06:47:33.302Z,80.40
2018-09-24T06:48:33.361Z,83.80
2018-09-24T06:49:33.211Z,88.30
2018-09-24T06:50:33.364Z,89.60
2018-09-24T06:51:33.225Z,90.20
2018-09-24T06:52:33.369Z,83.50
2018-09-24T06:53:33.261Z,85.50
2018-09-24T06:54:33.272Z,94.40
2018-09-24T06:55:33.440Z,88.20
2018-09-24T06:56:33.419Z,106.00
2018-09-24T06:57:33.295Z,98.50
2018-09-24T06:58:33.324Z,101.90
2018-09-24T06:59:33.422Z,95.30
2018-09-24T07:00:33.364Z,94.60
2018-09-24T07:01:33.540Z,89.80
2018-09-24T07:02:33.496Z,86.60
2018-09-24T07:03:33.379Z,84.70
2018-09-24T07:04:33.405Z,90.40
2018-09-24T07:05:33.656Z,85.00
2018-09-24T07:06:33.574Z,90.60
2018-09-24T07:07:33.425Z,76.10
2018-09-24T07:08:33.568Z,78.10
2018-09-24T07:09:33.460Z,82.50
2018-09-24T07:10:33.467Z,85.70
2018-09-24T07:11:33.541Z,77.10
2018-09-24T07:12:33.496Z,69.00
2018-09-24T07:13:33.634Z,73.50
2018-09-24T07:14:33.646Z,78.70
2018-09-24T07:15:33.530Z,71.30
2018-09-24T07:16:33.704Z,64.40
2018-09-24T07:17:33.563Z,73.40
2018-09-24T07:18:33.699Z,63.60
2018-09-24T07:19:33.706Z,79.10
2018-09-24T07:20:33.726Z,82.90
2018-09-24T07:21:33.893Z,82.00
2018-09-24T07:22:33.630Z,81.50
2018-09-24T07:23:33.638Z,83.30
2018-09-24T07:24:33.777Z,64.70
2018-09-24T07:25:33.789Z,71.10
2018-09-24T07:26:33.839Z,85.30
2018-09-24T07:27:33.740Z,78.00
2018-09-24T07:28:33.733Z,76.70
2018-09-24T07:29:33.700Z,79.10
2018-09-24T07:30:33.728Z,82.60
2018-09-24T07:31:34.014Z,83.50
2018-09-24T07:32:33.745Z,73.90
2018-09-24T07:33:33.886Z,68.80
2018-09-24T07:34:33.770Z,73.10
2018-09-24T07:35:33.913Z,75.80
2018-09-24T07:36:34.073Z,82.30
2018-09-24T07:37:33.936Z,79.70
2018-09-24T07:38:33.951Z,74.90
2018-09-24T07:39:33.839Z,69.50
2018-09-24T07:40:33.860Z,64.90
2018-09-24T07:41:34.023Z,61.90
2018-09-24T07:42:33.876Z,70.30
2018-09-24T07:43:33.992Z,60.30
2018-09-24T07:44:34.027Z,62.30
2018-09-24T07:45:33.913Z,60.30
2018-09-24T07:46:33.990Z,61.40
2018-09-24T07:47:34.061Z,62.50
2018-09-24T07:48:34.228Z,65.90
2018-09-24T07:49:33.971Z,65.30
2018-09-24T07:50:33.967Z,72.10
2018-09-24T07:51:33.999Z,73.80
2018-09-24T07:52:34.127Z,68.90
2018-09-24T07:53:34.166Z,81.60
2018-09-24T07:54:34.060Z,81.10
2018-09-24T07:55:34.223Z,76.70
2018-09-24T07:56:34.049Z,71.40
2018-09-24T07:57:34.184Z,70.40
2018-09-24T07:58:34.121Z,71.20
2018-09-24T07:59:34.364Z,73.60
2018-09-24T08:00:34.218Z,77.10
2018-09-24T08:01:34.237Z,73.30
2018-09-24T08:02:34.247Z,62.40
2018-09-24T08:03:34.259Z,65.90
2018-09-24T08:04:34.570Z,78.80
2018-09-24T08:05:34.163Z,65.20
2018-09-24T08:06:34.211Z,69.20
2018-09-24T08:07:34.331Z,62.60
2018-09-24T08:08:34.325Z,62.60
2018-09-24T08:09:34.488Z,65.20
2018-09-24T08:10:34.235Z,58.40
2018-09-24T08:11:34.234Z,62.70
2018-09-24T08:12:34.240Z,55.40
2018-09-24T08:13:34.384Z,60.10
2018-09-24T08:14:34.446Z,58.30
2018-09-24T08:15:34.415Z,54.20
2018-09-24T08:16:34.427Z,58.30
2018-09-24T08:17:34.435Z,59.10
2018-09-24T08:18:34.596Z,56.30
2018-09-24T08:19:34.457Z,59.90
2018-09-24T08:20:34.467Z,59.00
2018-09-24T08:21:34.481Z,61.70
2018-09-24T08:22:34.497Z,58.50
2018-09-24T08:23:34.546Z,71.80
2018-09-24T08:24:34.389Z,63.10
2018-09-24T08:25:34.426Z,67.10
2018-09-24T08:26:34.540Z,62.20
2018-09-24T08:27:34.554Z,64.50
2018-09-24T08:28:34.600Z,58.80
2018-09-24T08:29:34.453Z,65.70
2018-09-24T08:30:34.481Z,75.70
2018-09-24T08:31:34.478Z,71.40
2018-09-24T08:32:34.478Z,76.50
2018-09-24T08:33:34.561Z,79.40
2018-09-24T08:34:34.522Z,78.80
2018-09-24T08:35:34.652Z,73.60
2018-09-24T08:36:34.710Z,75.50
2018-09-24T08:37:34.680Z,65.40
2018-09-24T08:38:34.564Z,65.00
2018-09-24T08:39:34.700Z,70.80
2018-09-24T08:40:34.718Z,67.90
2018-09-24T08:41:34.776Z,71.10
2018-09-24T08:42:34.782Z,62.20
2018-09-24T08:43:34.753Z,72.90
2018-09-24T08:44:34.762Z,73.60
2018-09-24T08:45:34.646Z,69.60
2018-09-24T08:46:34.661Z,72.80
2018-09-24T08:47:34.849Z,69.50
2018-09-24T08:48:34.676Z,67.20
2018-09-24T08:49:34.736Z,63.30
2018-09-24T08:50:34.837Z,50.90
2018-09-24T08:51:34.724Z,52.10
2018-09-24T08:52:34.890Z,62.90
2018-09-24T08:53:34.753Z,57.00
2018-09-24T08:54:34.767Z,55.90
2018-09-24T08:55:34.786Z,64.60
2018-09-24T08:56:34.990Z,65.10
2018-09-24T08:57:35.071Z,61.00
2018-09-24T08:58:34.816Z,54.30
2018-09-24T08:59:34.945Z,54.10
2018-09-24T09:00:34.847Z,52.60
2018-09-24T09:01:34.838Z,59.80
2018-09-24T09:02:35.022Z,61.00
2018-09-24T09:03:34.992Z,66.10
2018-09-24T09:04:34.879Z,66.20
2018-09-24T09:05:34.898Z,70.60
2018-09-24T09:06:34.905Z,85.60
2018-09-24T09:07:35.073Z,78.50
2018-09-24T09:08:34.935Z,76.40
2018-09-24T09:09:34.943Z,84.00
2018-09-24T09:10:35.082Z,81.40
2018-09-24T09:11:34.971Z,87.60
2018-09-24T09:12:35.125Z,84.20
2018-09-24T09:13:35.116Z,65.50
2018-09-24T09:14:35.011Z,78.00
2018-09-24T09:15:35.161Z,88.90
2018-09-24T09:16:35.034Z,76.70
2018-09-24T09:17:35.319Z,82.90
2018-09-24T09:18:35.059Z,80.60
2018-09-24T09:19:35.067Z,80.50
2018-09-24T09:20:35.202Z,89.00
2018-09-24T09:21:35.092Z,89.40
2018-09-24T09:22:35.161Z,77.90
2018-09-24T09:23:35.280Z,83.50
2018-09-24T09:24:35.141Z,83.20
2018-09-24T09:25:35.146Z,89.50
2018-09-24T09:26:35.288Z,68.00
2018-09-24T09:27:35.293Z,62.40
2018-09-24T09:28:35.346Z,49.60
2018-09-24T09:29:35.423Z,42.70
2018-09-24T09:30:35.343Z,44.80
2018-09-24T09:31:35.353Z,45.90
2018-09-24T09:32:35.362Z,39.80
2018-09-24T09:33:35.525Z,39.40
2018-09-24T09:34:35.393Z,36.80
2018-09-24T09:35:35.404Z,34.70
2018-09-24T09:36:35.330Z,34.70
2018-09-24T09:37:35.319Z,34.40
2018-09-24T09:38:35.514Z,31.60
2018-09-24T09:39:35.338Z,29.20
2018-09-24T09:40:35.482Z,27.00
2018-09-24T09:41:35.495Z,26.10
2018-09-24T09:42:35.509Z,26.80
2018-09-24T09:43:35.559Z,29.00
2018-09-24T09:44:35.410Z,24.50
2018-09-24T09:45:35.440Z,25.70
2018-09-24T09:46:35.582Z,24.40
2018-09-24T09:47:35.462Z,27.30
2018-09-24T09:48:35.655Z,24.80
2018-09-24T09:49:35.545Z,24.90
2018-09-24T09:50:35.513Z,24.10
2018-09-24T09:51:35.659Z,23.60
2018-09-24T09:52:35.545Z,22.90
2018-09-24T09:53:35.791Z,23.40
2018-09-24T09:54:35.591Z,23.90
2018-09-24T09:55:35.643Z,23.10
2018-09-24T09:56:35.619Z,23.40
2018-09-24T09:57:35.761Z,23.30
2018-09-24T09:58:35.929Z,24.50
2018-09-24T09:59:35.789Z,24.10
2018-09-24T10:00:35.685Z,22.50
2018-09-24T10:01:35.703Z,24.00
2018-09-24T10:02:35.843Z,21.40
2018-09-24T10:03:35.892Z,23.20
2018-09-24T10:04:35.812Z,22.90
2018-09-24T10:05:35.899Z,21.90
2018-09-24T10:06:35.813Z,22.80
2018-09-24T10:07:35.805Z,23.60
2018-09-24T10:08:35.984Z,36.10
2018-09-24T10:09:35.844Z,23.90
2018-09-24T10:10:35.999Z,26.00
2018-09-24T10:11:35.896Z,24.70
2018-09-24T10:12:35.908Z,25.00
2018-09-24T10:13:36.066Z,25.60
2018-09-24T10:14:36.068Z,25.90
2018-09-24T10:15:36.095Z,27.60
2018-09-24T10:16:36.108Z,25.90
2018-09-24T10:17:36.006Z,25.10
2018-09-24T10:18:36.174Z,26.50
2018-09-24T10:19:36.040Z,25.60
2018-09-24T10:20:36.102Z,27.10
2018-09-24T10:21:36.204Z,28.30
2018-09-24T10:22:36.173Z,27.80
2018-09-24T10:23:36.281Z,27.10
2018-09-24T10:24:36.139Z,26.10
2018-09-24T10:25:36.163Z,25.90
2018-09-24T10:26:36.176Z,24.20
2018-09-24T10:27:36.327Z,25.40
2018-09-24T10:28:36.369Z,27.30
2018-09-24T10:29:36.243Z,27.00
2018-09-24T10:30:36.394Z,25.10
2018-09-24T10:31:36.281Z,27.30
2018-09-24T10:32:36.459Z,27.40
2018-09-24T10:33:36.492Z,26.00
2018-09-24T10:34:36.472Z,26.40
2018-09-24T10:35:36.361Z,25.50
2018-09-24T10:36:36.521Z,25.60
2018-09-24T10:37:36.427Z,26.90
2018-09-24T10:38:36.628Z,26.10
2018-09-24T10:39:36.562Z,26.50
2018-09-24T10:40:36.596Z,25.80
2018-09-24T10:41:36.635Z,25.10
2018-09-24T10:42:36.529Z,26.40
2018-09-24T10:43:36.819Z,26.00
2018-09-24T10:44:36.570Z,30.20
2018-09-24T10:45:36.583Z,28.50
2018-09-24T10:46:36.734Z,28.30
2018-09-24T10:47:36.656Z,29.40
2018-09-24T10:48:36.706Z,28.80
2018-09-24T10:49:36.797Z,29.80
2018-09-24T10:50:36.691Z,29.10
2018-09-24T10:51:36.868Z,28.00
2018-09-24T10:52:36.756Z,28.50
2018-09-24T10:53:36.762Z,28.90
2018-09-24T10:54:36.798Z,28.90
2018-09-24T10:55:36.882Z,30.50
2018-09-24T10:56:36.981Z,27.70
2018-09-24T10:57:36.866Z,28.50
2018-09-24T10:58:37.003Z,29.70
2018-09-24T10:59:36.979Z,31.50
2018-09-24T11:00:36.942Z,30.80
2018-09-24T11:01:37.073Z,30.00
2018-09-24T11:02:36.990Z,29.50
2018-09-24T11:03:36.992Z,31.70
2018-09-24T11:04:37.437Z,31.50
2018-09-24T11:05:37.044Z,32.50
2018-09-24T11:06:37.196Z,33.70
2018-09-24T11:07:37.097Z,31.40
2018-09-24T11:08:37.157Z,31.10
2018-09-24T11:09:37.313Z,28.90
2018-09-24T11:10:37.210Z,27.30
2018-09-24T11:11:37.460Z,30.20
2018-09-24T11:12:37.208Z,32.00
2018-09-24T11:13:37.368Z,32.60
2018-09-24T11:14:37.261Z,32.20
2018-09-24T11:15:37.482Z,32.60
2018-09-24T11:16:37.840Z,32.20
2018-09-24T11:17:37.655Z,30.50
2018-09-24T11:18:37.487Z,32.40
2018-09-24T11:19:37.514Z,32.20
2018-09-24T11:20:37.419Z,30.30
2018-09-24T11:21:37.597Z,34.10
2018-09-24T11:22:37.587Z,33.80
2018-09-24T11:23:37.629Z,34.10
2018-09-24T11:24:37.508Z,34.10
2018-09-24T11:25:37.527Z,33.20
2018-09-24T11:26:37.779Z,33.90
2018-09-24T11:27:37.703Z,34.40
2018-09-24T11:28:37.727Z,36.00
2018-09-24T11:29:37.767Z,36.00
2018-09-24T11:30:37.652Z,35.00
2018-09-24T11:31:37.953Z,34.80
2018-09-24T11:32:37.753Z,36.10
2018-09-24T11:33:37.729Z,35.40
2018-09-24T11:34:37.754Z,36.60
2018-09-24T11:35:37.778Z,36.20
2018-09-24T11:36:38.020Z,36.30
2018-09-24T11:37:37.836Z,40.20
2018-09-24T11:38:37.834Z,35.30
2018-09-24T11:39:37.982Z,36.10
2018-09-24T11:40:37.886Z,36.00
2018-09-24T11:41:37.957Z,37.80
2018-09-24T11:42:37.921Z,37.10
2018-09-24T11:43:37.933Z,35.20
2018-09-24T11:44:37.963Z,37.20
2018-09-24T11:45:38.141Z,37.80
2018-09-24T11:46:38.134Z,36.20
2018-09-24T11:47:38.145Z,36.20
2018-09-24T11:48:38.042Z,39.70
2018-09-24T11:49:38.192Z,39.30
2018-09-24T11:50:38.129Z,37.70
2018-09-24T11:51:38.105Z,34.70
2018-09-24T11:52:38.223Z,38.60
2018-09-24T11:53:38.274Z,34.80
2018-09-24T11:54:38.170Z,35.30
2018-09-24T11:55:38.308Z,35.10
2018-09-24T11:56:38.208Z,35.90
2018-09-24T11:57:38.284Z,34.00
2018-09-24T11:58:38.253Z,35.00
2018-09-24T11:59:38.393Z,38.60
2018-09-24T12:00:38.331Z,33.20
2018-09-24T12:01:38.308Z,30.20
2018-09-24T12:02:38.437Z,33.70
2018-09-24T12:03:38.368Z,36.00
2018-09-24T12:04:38.372Z,31.60
2018-09-24T12:05:38.393Z,36.10
2018-09-24T12:06:38.420Z,34.90
2018-09-24T12:07:38.723Z,33.20
2018-09-24T12:08:38.462Z,32.00
2018-09-24T12:09:38.614Z,29.20
2018-09-24T12:10:38.614Z,32.10
2018-09-24T12:11:38.548Z,26.20
2018-09-24T12:12:38.711Z,24.40
2018-09-24T12:13:38.591Z,25.00
2018-09-24T12:14:38.611Z,24.10
2018-09-24T12:15:38.646Z,24.80
2018-09-24T12:16:38.659Z,25.10
2018-09-24T12:17:42.434Z,25.00
2018-09-24T12:18:38.706Z,22.60
2018-09-24T12:19:38.864Z,25.50
2018-09-24T12:20:38.887Z,21.90
2018-09-24T12:21:38.823Z,17.40
2018-09-24T12:22:38.869Z,23.60
2018-09-24T12:23:38.962Z,18.90
2018-09-24T12:24:39.004Z,20.40
2018-09-24T12:25:38.893Z,21.90
2018-09-24T12:26:38.908Z,22.90
2018-09-24T12:27:38.956Z,19.60
2018-09-24T12:28:38.967Z,19.40
2018-09-24T12:29:39.161Z,18.70
2018-09-24T12:30:39.032Z,18.50
2018-09-24T12:31:39.170Z,20.30
2018-09-24T12:32:39.199Z,19.00
2018-09-24T12:33:39.106Z,20.30
2018-09-24T12:34:39.226Z,19.80
2018-09-24T12:35:39.161Z,16.80
2018-09-24T12:36:39.184Z,18.30
2018-09-24T12:37:39.331Z,19.10
2018-09-24T12:38:39.360Z,19.00
2018-09-24T12:39:39.362Z,19.30
2018-09-24T12:40:39.329Z,17.20
2018-09-24T12:41:39.312Z,16.60
2018-09-24T12:42:39.470Z,16.20
2018-09-24T12:43:39.370Z,15.10
2018-09-24T12:44:39.577Z,15.40
2018-09-24T12:45:39.449Z,16.30
2018-09-24T12:46:39.461Z,17.10
2018-09-24T12:47:39.612Z,17.90
2018-09-24T12:48:39.510Z,19.10
2018-09-24T12:49:39.765Z,16.70
2018-09-24T12:50:39.587Z,20.00
2018-09-24T12:51:39.595Z,17.70
2018-09-24T12:52:39.618Z,19.60